createdAt,value
2023-01-02T00:01:47.077Z,54.55
2023-01-02T00:04:14.092Z,56.22
2023-01-02T00:06:41.020Z,52.95
2023-01-02T00:09:08.727Z,56.30
2023-01-02T00:11:35.855Z,53.63
2023-01-02T00:14:02.873Z,55.15
2023-01-02T00:16:29.754Z,54.20
2023-01-02T00:18:56.613Z,52.65
2023-01-02T00:21:23.542Z,50.85
2023-01-02T00:23:50.366Z,51.33
2023-01-02T00:26:17.356Z,51.65
2023-01-02T00:28:44.195Z,53.53
2023-01-02T00:31:13.378Z,50.90
2023-01-02T00:33:40.442Z,52.00
2023-01-02T00:36:09.673Z,49.97
2023-01-02T00:38:38.374Z,51.58
2023-01-02T00:41:05.964Z,51.28
2023-01-02T00:43:33.288Z,48.55
2023-01-02T00:46:03.605Z,51.25
2023-01-02T00:48:33.222Z,51.42
2023-01-02T00:51:00.268Z,52.42
2023-01-02T00:53:27.237Z,52.30
2023-01-02T00:55:54.082Z,52.63
2023-01-02T00:58:21.165Z,54.38
2023-01-02T01:00:50.313Z,52.90
2023-01-02T01:03:17.408Z,52.40
2023-01-02T01:05:44.758Z,52.97
2023-01-02T01:08:11.794Z,49.45
2023-01-02T01:10:38.741Z,52.10
2023-01-02T01:13:06.157Z,49.22
2023-01-02T01:15:34.039Z,48.80
2023-01-02T01:18:01.057Z,48.47
2023-01-02T01:20:28.077Z,47.28
2023-01-02T01:22:54.938Z,49.67
2023-01-02T01:25:21.838Z,48.35
2023-01-02T01:27:48.755Z,48.30
2023-01-02T01:30:15.702Z,49.38
2023-01-02T01:32:42.513Z,49.38
2023-01-02T01:35:09.598Z,50.88
2023-01-02T01:37:39.377Z,48.95
2023-01-02T01:40:07.270Z,50.20
2023-01-02T01:42:34.619Z,49.50
2023-01-02T01:45:01.958Z,49.53
2023-01-02T01:47:53.835Z,51.20
2023-01-02T01:50:25.577Z,51.30
2023-01-02T01:53:04.039Z,51.55
2023-01-02T01:55:38.375Z,51.85
2023-01-02T01:58:07.270Z,54.42
2023-01-02T02:00:35.191Z,54.38
2023-01-02T02:03:07.456Z,53.85
2023-01-02T02:05:36.208Z,54.95
2023-01-02T02:08:38.571Z,53.80
2023-01-02T02:11:06.271Z,55.22
2023-01-02T02:13:34.112Z,57.00
2023-01-02T02:16:16.332Z,58.55
2023-01-02T02:19:01.560Z,60.83
2023-01-02T02:21:42.331Z,58.47
2023-01-02T02:24:35.744Z,56.70
2023-01-02T02:27:21.101Z,58.03
2023-01-02T02:30:12.094Z,61.22
2023-01-02T02:33:00.768Z,58.05
2023-01-02T02:36:05.040Z,55.78
2023-01-02T02:38:50.863Z,56.88
2023-01-02T02:41:27.202Z,55.72
2023-01-02T02:44:14.614Z,55.33
2023-01-02T02:46:56.589Z,55.05
2023-01-02T02:49:29.855Z,57.03
2023-01-02T02:52:20.052Z,55.55
2023-01-02T02:55:17.046Z,53.70
2023-01-02T02:57:46.177Z,53.13
2023-01-02T03:00:16.135Z,55.58
2023-01-02T03:02:43.354Z,56.05
2023-01-02T03:05:15.303Z,58.35
2023-01-02T03:07:53.290Z,52.80
2023-01-02T03:10:55.519Z,57.05
2023-01-02T03:13:47.041Z,53.35
2023-01-02T03:16:27.660Z,52.85
2023-01-02T03:19:09.403Z,54.17
2023-01-02T03:21:41.465Z,54.20
2023-01-02T03:24:15.887Z,53.42
2023-01-02T03:26:46.526Z,51.03
2023-01-02T03:29:19.443Z,53.92
2023-01-02T03:31:54.238Z,50.40
2023-01-02T03:34:25.811Z,51.05
2023-01-02T03:37:01.234Z,53.10
2023-01-02T03:39:31.075Z,51.15
2023-01-02T03:42:03.735Z,59.20
2023-01-02T03:45:12.916Z,57.88
2023-01-02T03:47:51.610Z,53.90
2023-01-02T03:50:26.231Z,57.28
2023-01-02T03:52:53.863Z,54.92
2023-01-02T03:55:24.288Z,52.95
2023-01-02T03:58:08.504Z,54.33
2023-01-02T04:00:56.865Z,51.15
2023-01-02T04:03:38.937Z,53.17
2023-01-02T04:06:20.047Z,52.30
2023-01-02T04:08:54.911Z,56.80
2023-01-02T04:11:24.855Z,57.47
2023-01-02T04:13:59.045Z,60.03
2023-01-02T04:16:31.552Z,59.60
2023-01-02T04:19:05.700Z,62.65
2023-01-02T04:21:37.259Z,60.72
2023-01-02T04:24:15.751Z,57.92
2023-01-02T04:27:07.029Z,60.47
2023-01-02T04:29:34.125Z,65.43
2023-01-02T04:32:23.127Z,70.38
2023-01-02T04:34:52.169Z,69.68
2023-01-02T04:37:33.382Z,68.70
2023-01-02T04:40:05.845Z,68.43
2023-01-02T04:42:33.001Z,68.50
2023-01-02T04:44:59.898Z,67.88
2023-01-02T04:47:26.979Z,68.43
2023-01-02T04:49:53.981Z,67.82
2023-01-02T04:52:21.125Z,66.93
2023-01-02T04:54:48.020Z,67.28
2023-01-02T04:57:14.999Z,62.13
2023-01-02T04:59:41.813Z,61.50
2023-01-02T05:02:08.929Z,63.83
2023-01-02T05:04:35.956Z,61.45
2023-01-02T05:07:03.429Z,58.75
2023-01-02T05:09:30.305Z,59.63
2023-01-02T05:11:57.243Z,56.85
2023-01-02T05:14:24.168Z,59.33
2023-01-02T05:16:51.042Z,59.72
2023-01-02T05:19:18.334Z,58.92
2023-01-02T05:22:03.777Z,59.05
2023-01-02T05:24:30.768Z,58.13
2023-01-02T05:26:57.680Z,56.88
2023-01-02T05:29:24.671Z,59.53
2023-01-02T05:31:51.490Z,55.67
2023-01-02T05:34:18.468Z,59.00
2023-01-02T05:36:45.269Z,59.53
2023-01-02T05:39:14.139Z,56.55
2023-01-02T05:41:42.033Z,57.33
2023-01-02T05:44:10.493Z,57.38
2023-01-02T05:46:38.757Z,58.15
2023-01-02T05:49:10.643Z,61.30
2023-01-02T05:51:38.113Z,56.20
2023-01-02T05:54:05.242Z,55.70
2023-01-02T05:56:32.300Z,57.85
2023-01-02T05:58:59.344Z,55.67
2023-01-02T06:01:29.144Z,55.72
2023-01-02T06:03:58.580Z,57.53
2023-01-02T06:06:30.366Z,57.53
2023-01-02T06:08:59.789Z,69.82
2023-01-02T06:11:27.578Z,65.68
2023-01-02T06:13:55.389Z,62.47
2023-01-02T06:16:23.453Z,65.78
2023-01-02T06:18:51.685Z,69.68
2023-01-02T06:21:21.605Z,70.43
2023-01-02T06:23:53.371Z,68.10
2023-01-02T06:26:20.703Z,65.85
2023-01-02T06:28:51.182Z,67.07
2023-01-02T06:31:20.035Z,67.47
2023-01-02T06:33:47.105Z,69.35
2023-01-02T06:36:18.571Z,66.22
2023-01-02T06:38:45.855Z,67.85
2023-01-02T06:41:13.874Z,66.55
2023-01-02T06:43:46.524Z,69.57
2023-01-02T06:46:16.592Z,67.53
2023-01-02T06:48:44.136Z,71.30
2023-01-02T06:51:13.985Z,71.28
2023-01-02T06:53:42.921Z,68.75
2023-01-02T06:56:11.351Z,69.15
2023-01-02T06:58:39.134Z,68.15
2023-01-02T07:01:22.988Z,69.53
2023-01-02T07:03:50.088Z,67.07
2023-01-02T07:06:21.723Z,67.82
2023-01-02T07:08:49.301Z,69.45
2023-01-02T07:11:19.322Z,69.15
2023-01-02T07:13:48.023Z,67.18
2023-01-02T07:16:17.877Z,63.97
2023-01-02T07:18:45.774Z,64.38
2023-01-02T07:21:14.313Z,64.68
2023-01-02T07:23:42.791Z,63.78
2023-01-02T07:26:10.663Z,64.67
2023-01-02T07:28:38.535Z,61.45
2023-01-02T07:31:12.558Z,60.13
2023-01-02T07:33:41.343Z,58.70
2023-01-02T07:36:11.736Z,55.50
2023-01-02T07:38:39.575Z,51.13
2023-01-02T07:41:17.346Z,48.70
2023-01-02T07:43:45.770Z,47.25
2023-01-02T07:46:15.639Z,50.40
2023-01-02T07:48:42.601Z,46.35
2023-01-02T07:51:10.395Z,43.53
2023-01-02T07:53:38.677Z,39.08
2023-01-02T07:56:05.960Z,34.10
2023-01-02T07:58:33.905Z,33.65
2023-01-02T08:01:07.151Z,31.33
2023-01-02T08:03:34.255Z,30.60
2023-01-02T08:06:05.173Z,29.50
2023-01-02T08:08:31.998Z,30.55
2023-01-02T08:10:58.914Z,30.92
2023-01-02T08:13:26.107Z,31.02
2023-01-02T08:15:53.097Z,32.63
2023-01-02T08:18:20.041Z,30.98
2023-01-02T08:20:46.876Z,32.10
2023-01-02T08:23:13.961Z,35.95
2023-01-02T08:25:40.850Z,40.53
2023-01-02T08:28:09.257Z,41.78
2023-01-02T08:30:36.255Z,58.03
2023-01-02T08:33:03.408Z,60.60
2023-01-02T08:35:38.618Z,65.20
2023-01-02T08:38:06.266Z,60.92
2023-01-02T08:40:33.419Z,48.42
2023-01-02T08:43:00.414Z,48.20
2023-01-02T08:45:27.303Z,41.58
2023-01-02T08:47:54.331Z,39.70
2023-01-02T08:50:21.948Z,39.33
2023-01-02T08:52:49.098Z,38.63
2023-01-02T08:55:17.302Z,37.75
2023-01-02T08:57:44.372Z,38.55
2023-01-02T09:00:13.846Z,39.17
2023-01-02T09:02:41.160Z,39.13
2023-01-02T09:05:08.901Z,39.58
2023-01-02T09:07:35.839Z,38.78
2023-01-02T09:10:03.144Z,36.35
2023-01-02T09:12:30.228Z,38.17
2023-01-02T09:14:57.375Z,39.42
2023-01-02T09:17:24.409Z,37.58
2023-01-02T09:19:51.361Z,38.35
2023-01-02T09:22:18.197Z,43.45
2023-01-02T09:24:45.171Z,43.50
2023-01-02T09:27:12.136Z,44.25
2023-01-02T09:29:39.261Z,47.03
2023-01-02T09:32:06.332Z,52.38
2023-01-02T09:34:33.303Z,51.53
2023-01-02T09:37:00.467Z,56.78
2023-01-02T09:39:32.406Z,56.97
2023-01-02T09:42:01.799Z,54.53
2023-01-02T09:44:55.669Z,55.55
2023-01-02T09:47:26.618Z,57.13
2023-01-02T09:49:57.535Z,59.95
2023-01-02T09:52:27.392Z,56.42
2023-01-02T09:54:54.246Z,56.95
2023-01-02T09:57:27.166Z,58.35
2023-01-02T10:00:06.631Z,57.78
2023-01-02T10:02:56.263Z,51.65
2023-01-02T10:06:10.454Z,55.15
2023-01-02T10:08:40.339Z,54.53
2023-01-02T10:11:28.242Z,52.00
2023-01-02T10:14:20.333Z,47.90
2023-01-02T10:16:52.520Z,47.80
2023-01-02T10:19:26.878Z,48.47
2023-01-02T10:22:00.418Z,49.10
2023-01-02T10:24:35.480Z,46.75
2023-01-02T10:27:06.500Z,48.47
2023-01-02T10:29:38.112Z,48.25
2023-01-02T10:32:16.034Z,47.92
2023-01-02T10:35:08.228Z,46.90
2023-01-02T10:37:36.050Z,44.88
2023-01-02T10:40:04.665Z,45.33
2023-01-02T10:42:33.480Z,47.17
2023-01-02T10:45:01.272Z,48.72
2023-01-02T10:47:39.566Z,45.72
2023-01-02T10:50:29.286Z,45.88
2023-01-02T10:55:44.223Z,43.67
2023-01-02T10:58:24.982Z,43.67
2023-01-02T11:01:03.936Z,48.95
2023-01-02T11:03:31.408Z,44.40
2023-01-02T11:06:05.875Z,48.08
2023-01-02T11:08:43.151Z,45.60
2023-01-02T11:11:14.923Z,46.58
2023-01-02T11:13:53.723Z,47.92
2023-01-02T11:16:24.630Z,44.95
2023-01-02T11:18:52.077Z,45.13
2023-01-02T11:21:46.773Z,45.25
2023-01-02T11:24:19.716Z,42.97
2023-01-02T11:26:49.997Z,43.35
2023-01-02T11:29:33.067Z,44.35
2023-01-02T11:32:02.359Z,43.25
2023-01-02T11:37:15.883Z,44.00
2023-01-02T11:39:56.689Z,45.50
2023-01-02T11:42:54.927Z,44.33
2023-01-02T11:45:22.095Z,45.60
2023-01-02T11:47:54.073Z,47.20
2023-01-02T11:50:27.596Z,43.42
2023-01-02T11:52:55.117Z,46.05
2023-01-02T11:55:24.969Z,45.92
2023-01-02T11:58:04.142Z,45.45
2023-01-02T12:00:35.315Z,46.22
2023-01-02T12:03:18.156Z,46.70
2023-01-02T12:06:07.326Z,45.85
2023-01-02T12:09:05.421Z,46.47
2023-01-02T12:11:41.653Z,44.67
2023-01-02T12:14:29.128Z,45.78
2023-01-02T12:17:14.784Z,44.25
2023-01-02T12:20:06.214Z,44.25
2023-01-02T12:23:01.329Z,41.38
2023-01-02T12:25:35.111Z,41.45
2023-01-02T12:28:18.506Z,38.50
2023-01-02T12:30:51.479Z,40.10
2023-01-02T12:33:36.119Z,40.60
2023-01-02T12:36:11.566Z,39.70
2023-01-02T12:38:56.958Z,39.40
2023-01-02T12:41:33.627Z,37.60
2023-01-02T12:44:36.107Z,38.78
2023-01-02T12:47:21.456Z,36.83
2023-01-02T12:50:06.575Z,37.08
2023-01-02T12:52:55.059Z,38.90
2023-01-02T12:55:53.153Z,40.53
2023-01-02T12:59:01.603Z,38.40
2023-01-02T13:01:56.574Z,38.65
2023-01-02T13:04:28.461Z,36.22
2023-01-02T13:07:20.145Z,35.78
2023-01-02T13:09:48.603Z,37.13
2023-01-02T13:12:21.931Z,39.22
2023-01-02T13:15:15.472Z,42.67
2023-01-02T13:17:51.499Z,40.17
2023-01-02T13:20:34.116Z,38.30
2023-01-02T13:23:29.010Z,38.30
2023-01-02T13:26:00.876Z,37.22
2023-01-02T13:28:28.280Z,35.33
2023-01-02T13:31:35.336Z,34.78
2023-01-02T13:33:51.832Z,34.08
2023-01-02T13:36:29.100Z,30.42
2023-01-02T13:39:00.005Z,35.53
2023-01-02T13:41:28.749Z,34.85
2023-01-02T13:44:00.551Z,36.13
2023-01-02T13:47:02.841Z,34.78
2023-01-02T13:49:23.890Z,37.28
2023-01-02T13:52:00.103Z,38.92
2023-01-02T13:54:36.247Z,38.60
2023-01-02T13:57:17.292Z,37.75
2023-01-02T13:59:57.771Z,35.45
2023-01-02T14:02:25.045Z,35.15
2023-01-02T14:04:52.218Z,38.88
2023-01-02T14:07:25.321Z,39.70
2023-01-02T14:10:31.123Z,33.65
2023-01-02T14:13:05.336Z,27.00
2023-01-02T14:15:36.905Z,24.55
2023-01-02T14:18:12.024Z,23.85
2023-01-02T14:20:45.428Z,24.27
2023-01-02T14:23:28.541Z,23.88
2023-01-02T14:25:56.095Z,22.55
2023-01-02T14:28:29.806Z,23.55
2023-01-02T14:30:57.866Z,23.50
2023-01-02T14:33:36.532Z,22.48
2023-01-02T14:36:12.176Z,24.58
2023-01-02T14:38:50.696Z,21.80
2023-01-02T14:42:10.518Z,22.97
2023-01-02T14:44:48.364Z,23.25
2023-01-02T14:47:25.739Z,24.38
2023-01-02T14:49:59.742Z,22.05
2023-01-02T14:52:37.877Z,22.80
2023-01-02T14:55:16.032Z,22.92
2023-01-02T14:57:48.559Z,23.27
2023-01-02T15:00:38.539Z,24.88
2023-01-02T15:03:23.514Z,24.08
2023-01-02T15:05:58.884Z,25.52
2023-01-02T15:08:35.334Z,25.20
2023-01-02T15:11:22.791Z,25.58
2023-01-02T15:14:03.732Z,26.85
2023-01-02T15:16:40.003Z,25.85
2023-01-02T15:19:15.941Z,25.85
2023-01-02T15:21:43.019Z,27.13
2023-01-02T15:24:28.215Z,28.65
2023-01-02T15:26:55.223Z,28.17
2023-01-02T15:29:28.026Z,26.30
2023-01-02T15:31:57.609Z,28.38
2023-01-02T15:34:30.751Z,27.88
2023-01-02T15:37:02.340Z,27.85
2023-01-02T15:39:42.634Z,27.27
2023-01-02T15:42:38.605Z,29.90
2023-01-02T15:45:15.195Z,28.23
2023-01-02T15:47:48.974Z,28.08
2023-01-02T15:50:30.227Z,28.40
2023-01-02T15:52:59.709Z,31.05
2023-01-02T15:55:30.758Z,30.80
2023-01-02T15:57:58.821Z,31.92
2023-01-02T16:00:46.217Z,32.45
2023-01-02T16:04:00.733Z,34.72
2023-01-02T16:06:27.703Z,33.80
2023-01-02T16:08:57.982Z,35.13
2023-01-02T16:11:26.275Z,33.25
2023-01-02T16:14:22.415Z,35.33
2023-01-02T16:16:57.693Z,35.78
2023-01-02T16:19:38.247Z,34.42
2023-01-02T16:22:11.271Z,33.92
2023-01-02T16:24:46.380Z,32.33
2023-01-02T16:27:26.459Z,32.30
2023-01-02T16:29:54.299Z,31.55
2023-01-02T16:32:32.080Z,32.25
2023-01-02T16:35:10.910Z,33.58
2023-01-02T16:37:39.033Z,31.95
2023-01-02T16:41:00.834Z,31.30
2023-01-02T16:43:13.898Z,32.95
2023-01-02T16:45:41.301Z,34.35
2023-01-02T16:48:14.656Z,33.58
2023-01-02T16:50:44.741Z,35.90
2023-01-02T16:53:19.726Z,35.28
2023-01-02T16:55:46.619Z,36.45
2023-01-02T16:58:14.742Z,34.58
2023-01-02T17:00:43.755Z,35.38
2023-01-02T17:03:16.779Z,35.42
2023-01-02T17:06:02.459Z,35.75
2023-01-02T17:08:41.877Z,33.97
2023-01-02T17:11:16.527Z,36.20
2023-01-02T17:13:43.615Z,36.13
2023-01-02T17:16:10.667Z,35.92
2023-01-02T17:18:39.853Z,36.45
2023-01-02T17:21:07.263Z,38.38
2023-01-02T17:23:34.137Z,37.45
2023-01-02T17:26:02.135Z,36.88
2023-01-02T17:28:29.796Z,39.78
2023-01-02T17:30:57.540Z,41.20
2023-01-02T17:33:25.264Z,38.50
2023-01-02T17:35:52.446Z,38.35
2023-01-02T17:38:19.551Z,36.38
2023-01-02T17:40:46.678Z,36.70
2023-01-02T17:43:15.096Z,36.70
2023-01-02T17:45:42.900Z,37.97
2023-01-02T17:48:12.215Z,36.45
2023-01-02T17:53:26.546Z,35.70
2023-01-02T17:56:20.665Z,36.72
2023-01-02T17:58:42.103Z,34.58
2023-01-02T18:01:14.946Z,35.00
2023-01-02T18:03:42.309Z,38.05
2023-01-02T18:06:09.853Z,36.13
2023-01-02T18:08:38.173Z,34.85
2023-01-02T18:11:09.868Z,35.22
2023-01-02T18:13:43.503Z,35.22
2023-01-02T18:16:17.069Z,33.75
2023-01-02T18:21:30.633Z,35.97
2023-01-02T18:24:01.340Z,34.65
2023-01-02T18:26:31.124Z,36.22
2023-01-02T18:29:05.647Z,37.83
2023-01-02T18:31:41.453Z,35.50
2023-01-02T18:34:59.278Z,36.60
2023-01-02T18:37:28.442Z,35.83
2023-01-02T18:39:56.913Z,34.70
2023-01-02T18:42:27.110Z,35.00
2023-01-02T18:44:56.583Z,35.97
2023-01-02T18:50:24.282Z,35.22
2023-01-02T18:52:52.264Z,35.47
2023-01-02T18:55:28.889Z,36.17
2023-01-02T18:58:01.883Z,38.78
2023-01-02T19:00:33.844Z,39.17
2023-01-02T19:03:19.148Z,38.70
2023-01-02T19:05:46.178Z,39.30
2023-01-02T19:08:25.456Z,38.17
2023-01-02T19:10:55.864Z,39.95
2023-01-02T19:13:34.755Z,39.20
2023-01-02T19:16:02.967Z,40.30
2023-01-02T19:18:52.101Z,39.28
2023-01-02T19:21:27.194Z,39.88
2023-01-02T19:24:16.030Z,37.75
2023-01-02T19:26:45.749Z,40.25
2023-01-02T19:29:12.883Z,39.72
2023-01-02T19:31:44.488Z,39.15
2023-01-02T19:34:23.067Z,38.97
2023-01-02T19:36:54.498Z,39.15
2023-01-02T19:39:30.209Z,39.25
2023-01-02T19:42:15.446Z,37.53
2023-01-02T19:44:43.052Z,38.85
2023-01-02T19:47:10.029Z,38.38
2023-01-02T19:49:36.949Z,42.78
2023-01-02T19:52:05.138Z,40.22
2023-01-02T19:54:33.258Z,39.25
2023-01-02T19:57:00.148Z,40.88
2023-01-02T19:59:26.996Z,40.83
2023-01-02T20:01:54.181Z,42.88
2023-01-02T20:04:21.346Z,41.90
2023-01-02T20:06:48.253Z,43.22
2023-01-02T20:09:19.585Z,41.42
2023-01-02T20:12:24.372Z,43.72
2023-01-02T20:14:52.313Z,41.03
2023-01-02T20:17:20.099Z,42.42
2023-01-02T20:19:46.949Z,43.22
2023-01-02T20:22:13.801Z,44.55
2023-01-02T20:24:40.914Z,44.85
2023-01-02T20:27:08.323Z,43.35
2023-01-02T20:29:35.415Z,42.15
2023-01-02T20:32:02.369Z,41.20
2023-01-02T20:34:29.168Z,42.50
2023-01-02T20:36:56.231Z,40.70
2023-01-02T20:39:23.501Z,40.15
2023-01-02T20:41:50.712Z,40.92
2023-01-02T20:44:18.063Z,39.80
2023-01-02T20:46:44.981Z,40.08
2023-01-02T20:49:12.200Z,39.05
2023-01-02T20:51:39.403Z,40.95
2023-01-02T20:54:07.486Z,40.42
2023-01-02T20:56:35.077Z,41.45
2023-01-02T20:59:03.508Z,41.58
2023-01-02T21:01:30.748Z,39.55
2023-01-02T21:03:57.778Z,42.70
2023-01-02T21:06:24.979Z,41.65
2023-01-02T21:08:51.821Z,43.85
2023-01-02T21:11:18.772Z,45.60
2023-01-02T21:13:45.820Z,48.33
2023-01-02T21:16:12.861Z,48.65
2023-01-02T21:18:41.216Z,50.45
2023-01-02T21:21:11.618Z,46.57
2023-01-02T21:23:40.459Z,46.72
2023-01-02T21:26:09.173Z,46.13
2023-01-02T21:28:37.058Z,46.03
2023-01-02T21:31:05.001Z,45.97
2023-01-02T21:33:32.158Z,48.92
2023-01-02T21:36:01.001Z,47.03
2023-01-02T21:38:28.769Z,48.40
2023-01-02T21:41:17.130Z,49.80
2023-01-02T21:43:44.271Z,56.10
2023-01-02T21:46:11.445Z,58.22
2023-01-02T21:48:38.638Z,54.95
2023-01-02T21:51:06.340Z,57.42
2023-01-02T21:53:34.214Z,55.33
2023-01-02T21:56:01.337Z,52.80
2023-01-02T21:58:30.211Z,53.65
2023-01-02T22:00:57.146Z,49.47
2023-01-02T22:03:24.479Z,49.65
2023-01-02T22:05:51.549Z,50.45
2023-01-02T22:08:19.017Z,51.30
2023-01-02T22:10:45.993Z,50.42
2023-01-02T22:13:12.901Z,48.65
2023-01-02T22:15:39.893Z,48.70
2023-01-02T22:18:06.974Z,48.42
2023-01-02T22:20:33.991Z,46.95
2023-01-02T22:23:00.980Z,46.50
2023-01-02T22:25:28.263Z,47.60
2023-01-02T22:27:55.231Z,48.42
2023-01-02T22:30:31.085Z,46.33
2023-01-02T22:33:00.133Z,46.80
2023-01-02T22:35:27.638Z,48.42
2023-01-02T22:37:54.841Z,50.15
2023-01-02T22:40:21.840Z,48.63
2023-01-02T22:43:00.955Z,49.42
2023-01-02T22:45:39.620Z,49.85
2023-01-02T22:48:14.273Z,52.42
2023-01-02T22:50:45.546Z,51.67
2023-01-02T22:53:25.795Z,48.88
2023-01-02T22:55:52.904Z,49.28
2023-01-02T22:58:21.008Z,47.05
2023-01-02T23:00:53.734Z,48.38
2023-01-02T23:03:20.757Z,48.00
2023-01-02T23:05:47.924Z,49.38
2023-01-02T23:08:14.905Z,49.17
2023-01-02T23:10:41.946Z,51.30
2023-01-02T23:13:08.884Z,51.42
2023-01-02T23:15:35.969Z,49.38
2023-01-02T23:18:21.435Z,48.80
2023-01-02T23:20:48.542Z,46.85
2023-01-02T23:23:15.433Z,47.70
2023-01-02T23:25:43.585Z,45.53
2023-01-02T23:28:16.604Z,47.35
2023-01-02T23:30:57.567Z,46.25
2023-01-02T23:33:24.547Z,44.70
2023-01-02T23:35:52.823Z,44.45
2023-01-02T23:38:20.059Z,45.87
2023-01-02T23:40:46.985Z,46.95
2023-01-02T23:43:13.878Z,45.58
2023-01-02T23:45:42.470Z,44.05
2023-01-02T23:48:09.318Z,50.25
2023-01-02T23:50:36.285Z,53.25
2023-01-02T23:53:03.163Z,54.38
2023-01-02T23:55:30.453Z,56.53
2023-01-02T23:57:57.333Z,61.20
